Time;durP1;ratioP1;P1;durP2;ratioP2;P2;SDS_P1;SDS_P2;PMS_P1;PMS_P2;Temp;Humidity;BMP_temperature;BMP_pressure;BME280_temperature;BME280_humidity;BME280_pressure;Samples;Min_cycle;Max_cycle;Signal;HPM_P1;HPM_P2
2021/12/13 00:02:25;;;;;;;6.63;3.27;;;12.40;99.90;;;;;;6264807;22;20197;-93
2021/12/13 00:05:14;;;;;;;4.97;3.53;;;12.40;99.90;;;;;;6239762;23;20205;-93
2021/12/13 00:07:45;;;;;;;8.90;3.87;;;12.40;99.90;;;;;;6225399;23;20260;-92
2021/12/13 00:10:17;;;;;;;4.40;2.90;;;12.40;99.90;;;;;;6267711;22;20193;-93
2021/12/13 00:12:49;;;;;;;5.30;2.63;;;12.40;99.90;;;;;;6268104;22;20193;-92
2021/12/13 00:15:24;;;;;;;7.37;3.20;;;12.40;99.90;;;;;;6267465;22;20201;-93
2021/12/13 00:17:52;;;;;;;4.60;3.93;;;12.40;99.90;;;;;;6267694;22;20151;-92
2021/12/13 00:20:29;;;;;;;12.17;3.63;;;12.40;99.90;;;;;;6266740;22;20197;-93
2021/12/13 00:23:01;;;;;;;4.23;3.80;;;12.40;99.90;;;;;;6266824;22;20524;-93
2021/12/13 00:25:29;;;;;;;4.83;2.97;;;12.40;99.90;;;;;;6265876;22;20204;-92
2021/12/13 00:28:00;;;;;;;7.17;4.43;;;12.40;99.90;;;;;;6265457;22;20660;-93
2021/12/13 00:30:26;;;;;;;5.27;3.97;;;12.40;99.90;;;;;;6265962;22;20189;-93
2021/12/13 00:33:26;;;;;;;6.93;3.23;;;12.40;99.90;;;;;;6243532;22;20191;-92
2021/12/13 00:36:05;;;;;;;6.70;3.50;;;12.40;99.90;;;;;;6241635;23;20523;-92
2021/12/13 00:38:37;;;;;;;9.20;5.00;;;12.40;99.90;;;;;;6270133;22;20148;-93
2021/12/13 00:41:09;;;;;;;10.33;3.60;;;12.40;99.90;;;;;;6268543;22;20202;-93
2021/12/13 00:43:39;;;;;;;9.07;3.73;;;12.40;99.90;;;;;;6269514;22;20220;-92
2021/12/13 00:46:09;;;;;;;6.53;4.10;;;12.40;99.90;;;;;;6245506;23;20280;-92
2021/12/13 00:48:38;;;;;;;9.77;5.03;;;12.40;99.90;;;;;;6270063;22;20205;-93
2021/12/13 00:51:16;;;;;;;9.53;4.10;;;12.40;99.90;;;;;;6270312;22;20162;-92
2021/12/13 00:53:47;;;;;;;6.63;3.40;;;12.40;99.90;;;;;;6271537;22;20145;-92
2021/12/13 00:56:50;;;;;;;18.77;3.60;;;12.40;99.90;;;;;;6269587;22;20252;-92
2021/12/13 00:59:26;;;;;;;6.83;4.67;;;12.50;99.90;;;;;;6243319;23;20193;-93
2021/12/13 01:01:57;;;;;;;4.10;2.73;;;12.50;99.90;;;;;;6242423;23;20201;-92
2021/12/13 01:04:43;;;;;;;9.07;4.17;;;12.50;99.90;;;;;;6270522;22;20212;-93
2021/12/13 01:07:54;;;;;;;7.40;3.30;;;12.40;99.90;;;;;;6248901;22;20201;-92
2021/12/13 01:10:38;;;;;;;5.20;3.90;;;12.50;99.90;;;;;;6214286;23;20650;-92
2021/12/13 01:13:10;;;;;;;9.70;3.17;;;12.50;99.90;;;;;;6244599;23;20255;-92
2021/12/13 01:15:53;;;;;;;5.07;2.17;;;12.50;99.90;;;;;;6269421;22;20196;-92
2021/12/13 01:18:29;;;;;;;11.43;4.27;;;12.40;99.90;;;;;;6266990;22;20193;-93
2021/12/13 01:21:08;;;;;;;11.60;4.10;;;12.40;99.90;;;;;;6266284;22;20142;-92
2021/12/13 01:23:45;;;;;;;7.03;4.67;;;12.40;99.90;;;;;;6240794;23;20252;-93
2021/12/13 01:28:47;;;;;;;9.83;4.07;;;12.40;99.90;;;;;;6243615;22;20274;-93
2021/12/13 01:31:25;;;;;;;5.27;3.07;;;12.40;99.90;;;;;;6267706;22;20205;-92
2021/12/13 01:33:54;;;;;;;9.20;3.57;;;12.40;99.90;;;;;;6268585;22;20980;-93
2021/12/13 01:36:29;;;;;;;6.03;2.97;;;12.40;99.90;;;;;;6242952;22;20563;-92
2021/12/13 01:39:06;;;;;;;8.60;3.47;;;12.40;99.90;;;;;;6267578;22;20198;-92
2021/12/13 01:41:39;;;;;;;16.87;4.30;;;12.40;99.90;;;;;;6266085;22;20145;-92
2021/12/13 01:44:20;;;;;;;10.93;4.20;;;12.40;99.90;;;;;;6264264;22;20212;-92
2021/12/13 01:46:50;;;;;;;3.60;2.67;;;12.40;99.90;;;;;;6265117;22;20196;-93
2021/12/13 01:49:19;;;;;;;3.57;1.87;;;12.40;99.90;;;;;;6266214;22;20197;-93
2021/12/13 01:51:46;;;;;;;12.10;2.50;;;12.40;99.90;;;;;;6240115;22;20195;-92
2021/12/13 01:54:20;;;;;;;6.43;3.33;;;12.40;99.90;;;;;;6239870;22;20161;-92
2021/12/13 01:57:24;;;;;;;10.33;3.63;;;12.30;99.90;;;;;;6269159;22;20138;-92
2021/12/13 02:00:09;;;;;;;6.93;2.20;;;12.30;99.90;;;;;;6221430;23;20243;-92
2021/12/13 02:02:39;;;;;;;3.30;2.57;;;12.30;99.90;;;;;;6268438;22;20177;-92
2021/12/13 02:05:18;;;;;;;3.30;2.57;;;12.30;99.90;;;;;;6268344;22;20204;-92
2021/12/13 02:08:02;;;;;;;4.50;2.30;;;12.30;99.90;;;;;;6265923;22;20193;-92
2021/12/13 02:10:32;;;;;;;6.17;3.83;;;12.30;99.90;;;;;;6241039;23;20204;-93
2021/12/13 02:13:06;;;;;;;14.17;5.27;;;12.20;99.90;;;;;;6241364;23;20641;-92
2021/12/13 02:18:23;;;;;;;9.03;3.90;;;12.20;99.90;;;;;;6242086;22;20189;-92
2021/12/13 02:21:07;;;;;;;2.43;1.80;;;12.20;99.90;;;;;;6266508;22;20154;-92
2021/12/13 02:23:43;;;;;;;8.43;4.00;;;12.10;99.90;;;;;;6240075;23;20959;-92
2021/12/13 02:26:10;;;;;;;8.87;2.43;;;12.10;99.90;;;;;;6264846;22;20205;-92
2021/12/13 02:28:40;;;;;;;7.77;3.47;;;12.10;99.90;;;;;;6240761;22;20202;-92
2021/12/13 02:31:08;;;;;;;3.53;2.43;;;12.10;99.90;;;;;;6265646;22;20200;-93
2021/12/13 02:33:39;;;;;;;2.70;2.50;;;12.10;99.90;;;;;;6266278;22;20193;-92
2021/12/13 02:36:11;;;;;;;6.07;2.97;;;12.10;99.90;;;;;;6265925;22;20177;-93
2021/12/13 02:38:39;;;;;;;9.23;2.03;;;12.10;99.90;;;;;;6265896;22;20145;-92
2021/12/13 02:41:08;;;;;;;4.40;2.10;;;12.10;99.90;;;;;;6265334;22;20197;-92
2021/12/13 02:43:41;;;;;;;6.40;3.17;;;12.10;99.90;;;;;;6265257;22;20221;-92
2021/12/13 02:46:07;;;;;;;4.27;3.87;;;12.00;99.90;;;;;;6239564;23;20209;-92
2021/12/13 02:48:45;;;;;;;16.90;4.23;;;12.00;99.90;;;;;;6240188;22;20197;-92
2021/12/13 02:51:24;;;;;;;11.07;2.63;;;12.00;99.90;;;;;;6265836;22;20156;-92
2021/12/13 02:53:59;;;;;;;2.37;1.17;;;12.00;99.90;;;;;;6266093;22;20172;-92
2021/12/13 02:56:35;;;;;;;1.97;1.77;;;12.00;99.90;;;;;;6240812;23;20713;-92
2021/12/13 02:59:03;;;;;;;4.60;2.87;;;11.90;99.90;;;;;;6265703;22;20189;-92
2021/12/13 03:01:37;;;;;;;4.17;2.30;;;12.00;99.90;;;;;;6240285;22;20279;-92
2021/12/13 03:04:07;;;;;;;3.80;2.33;;;11.90;99.90;;;;;;6265170;22;20204;-91
2021/12/13 03:06:37;;;;;;;10.23;2.93;;;11.90;99.90;;;;;;6265633;22;20213;-92
2021/12/13 03:09:09;;;;;;;1.73;1.60;;;11.90;99.90;;;;;;6265581;22;20158;-92
2021/12/13 03:11:35;;;;;;;3.90;2.10;;;11.90;99.90;;;;;;6266143;22;20149;-91
2021/12/13 03:14:04;;;;;;;3.83;1.73;;;11.90;99.90;;;;;;6239729;22;20197;-92
2021/12/13 03:16:52;;;;;;;7.60;2.20;;;11.90;99.90;;;;;;6265511;22;20197;-92
2021/12/13 03:19:30;;;;;;;6.00;2.17;;;11.90;99.90;;;;;;6264990;22;21045;-91
2021/12/13 03:22:26;;;;;;;7.80;3.17;;;11.90;99.90;;;;;;6239282;23;20198;-92
2021/12/13 03:25:13;;;;;;;3.07;1.30;;;11.90;99.90;;;;;;6239156;23;20208;-92
2021/12/13 03:28:13;;;;;;;7.67;1.93;;;11.80;99.90;;;;;;6265500;22;20521;-92
2021/12/13 03:31:24;;;;;;;10.70;1.83;;;11.90;99.90;;;;;;6264154;22;20242;-92
2021/12/13 03:34:01;;;;;;;3.77;1.13;;;11.90;99.90;;;;;;6117967;23;20196;-91
2021/12/13 03:36:49;;;;;;;8.17;1.13;;;11.80;99.90;;;;;;6117549;23;20230;-91
2021/12/13 03:39:29;;;;;;;2.60;1.70;;;11.80;99.90;;;;;;6224139;22;20271;-91
2021/12/13 03:41:57;;;;;;;9.33;1.97;;;11.80;99.90;;;;;;6264890;22;20195;-91
2021/12/13 03:44:28;;;;;;;5.23;1.37;;;11.90;99.90;;;;;;6239418;22;20165;-92
2021/12/13 03:46:59;;;;;;;3.43;1.40;;;11.90;99.90;;;;;;6263897;22;20201;-92
2021/12/13 03:49:25;;;;;;;6.27;2.20;;;11.90;99.90;;;;;;6263462;22;20189;-92
2021/12/13 03:51:55;;;;;;;1.50;0.97;;;11.90;99.90;;;;;;6236828;22;20775;-92
2021/12/13 03:54:24;;;;;;;4.73;1.80;;;11.90;99.90;;;;;;6260672;22;20307;-91
2021/12/13 03:56:51;;;;;;;9.57;3.23;;;11.90;99.90;;;;;;6260852;22;20153;-92
2021/12/13 03:59:22;;;;;;;2.13;1.67;;;11.80;99.90;;;;;;6212538;23;20665;-92
2021/12/13 04:02:06;;;;;;;7.20;1.70;;;11.90;99.90;;;;;;6261870;22;20196;-92
2021/12/13 04:04:46;;;;;;;1.43;1.30;;;11.90;99.90;;;;;;6260349;22;20216;-91
2021/12/13 04:07:15;;;;;;;2.23;1.10;;;11.90;99.90;;;;;;6260736;22;20189;-92
2021/12/13 04:09:44;;;;;;;4.77;1.67;;;11.80;99.90;;;;;;6263417;22;20725;-92
2021/12/13 04:12:14;;;;;;;13.60;2.53;;;11.90;99.90;;;;;;6262468;22;20164;-92
2021/12/13 04:14:49;;;;;;;5.67;1.50;;;11.80;99.90;;;;;;6213441;23;20177;-92
2021/12/13 04:20:24;;;;;;;7.27;2.43;;;11.80;99.90;;;;;;6240260;22;20205;-92
2021/12/13 04:22:54;;;;;;;2.60;1.83;;;11.80;99.90;;;;;;6264432;22;20200;-91
2021/12/13 04:25:25;;;;;;;2.80;2.33;;;11.80;99.90;;;;;;6264407;22;21008;-92
2021/12/13 04:28:03;;;;;;;5.00;4.53;;;11.80;99.90;;;;;;6264113;22;20696;-92
2021/12/13 04:30:31;;;;;;;3.47;2.77;;;11.80;99.90;;;;;;6238700;23;20201;-92
2021/12/13 04:33:00;;;;;;;3.27;2.00;;;11.70;99.90;;;;;;6264626;22;20402;-92
2021/12/13 04:35:29;;;;;;;2.40;1.93;;;11.70;99.90;;;;;;6265141;22;20154;-92
2021/12/13 04:37:58;;;;;;;4.87;3.63;;;11.70;99.90;;;;;;6240220;22;20604;-91
2021/12/13 04:40:31;;;;;;;4.30;2.73;;;11.70;99.90;;;;;;6265031;22;20216;-92
2021/12/13 04:43:06;;;;;;;2.50;2.30;;;11.60;99.90;;;;;;6264530;22;20263;-91
2021/12/13 04:45:34;;;;;;;5.30;2.00;;;11.70;99.90;;;;;;6238886;23;20224;-91
2021/12/13 04:48:06;;;;;;;3.00;2.17;;;11.60;99.90;;;;;;6239906;22;20169;-92
2021/12/13 04:50:50;;;;;;;5.50;1.80;;;11.60;99.90;;;;;;6240272;22;20199;-91
2021/12/13 04:53:27;;;;;;;2.43;1.77;;;11.60;99.90;;;;;;6263076;22;20201;-91
2021/12/13 04:55:54;;;;;;;3.20;1.97;;;11.60;99.90;;;;;;6262026;22;20213;-91
2021/12/13 04:58:21;;;;;;;4.40;1.80;;;11.60;99.90;;;;;;6235151;22;20204;-91
2021/12/13 05:00:52;;;;;;;2.30;1.50;;;11.60;99.90;;;;;;6233569;22;20526;-91
2021/12/13 05:03:22;;;;;;;1.43;1.10;;;11.60;99.90;;;;;;6258876;22;20200;-92
2021/12/13 05:05:48;;;;;;;5.67;1.47;;;11.60;99.90;;;;;;6264981;22;20619;-91
2021/12/13 05:08:16;;;;;;;1.33;1.10;;;11.60;99.90;;;;;;6236060;22;20255;-91
2021/12/13 05:10:48;;;;;;;4.17;1.80;;;11.60;99.90;;;;;;6237901;22;20188;-92
2021/12/13 05:13:23;;;;;;;7.13;1.53;;;11.60;99.90;;;;;;6264227;22;20201;-92
2021/12/13 05:16:01;;;;;;;18.93;2.03;;;11.50;99.90;;;;;;6264008;22;20188;-91
2021/12/13 05:18:31;;;;;;;3.83;2.40;;;11.60;99.90;;;;;;6263950;22;20276;-92
2021/12/13 05:21:09;;;;;;;1.23;1.00;;;11.60;99.90;;;;;;6264000;22;20601;-91
2021/12/13 05:23:47;;;;;;;2.73;2.13;;;11.50;99.90;;;;;;6265073;22;20145;-91
2021/12/13 05:26:26;;;;;;;3.53;2.37;;;11.50;99.90;;;;;;6264310;22;20605;-92
2021/12/13 05:28:52;;;;;;;10.10;2.67;;;11.50;99.90;;;;;;6264393;22;20204;-91
2021/12/13 05:31:22;;;;;;;2.37;1.40;;;11.50;99.90;;;;;;6238056;22;20201;-91
2021/12/13 05:34:00;;;;;;;2.43;1.30;;;11.50;99.90;;;;;;6264577;22;20193;-92
2021/12/13 05:36:34;;;;;;;4.60;1.87;;;11.50;99.90;;;;;;6263410;22;20196;-92
2021/12/13 05:39:13;;;;;;;3.80;3.10;;;11.50;99.90;;;;;;6263771;22;20146;-92
2021/12/13 05:41:48;;;;;;;3.53;2.97;;;11.50;99.90;;;;;;6264772;22;20137;-92
2021/12/13 05:44:27;;;;;;;5.87;3.57;;;11.50;99.90;;;;;;6238495;22;20224;-91
2021/12/13 05:46:53;;;;;;;5.10;3.17;;;11.40;99.90;;;;;;6239013;23;20510;-92
2021/12/13 05:49:33;;;;;;;2.80;2.53;;;11.40;99.90;;;;;;6212311;23;20197;-91
2021/12/13 05:52:13;;;;;;;4.53;3.23;;;11.40;99.90;;;;;;6265709;22;20926;-92
2021/12/13 05:54:45;;;;;;;4.37;3.57;;;11.40;99.90;;;;;;6265042;22;20223;-92
2021/12/13 05:57:34;;;;;;;4.50;3.83;;;11.40;99.90;;;;;;6262715;22;20153;-92
2021/12/13 06:00:25;;;;;;;5.60;5.07;;;11.40;99.90;;;;;;6265773;22;20456;-93
2021/12/13 06:03:09;;;;;;;4.57;3.93;;;11.40;99.90;;;;;;6239185;23;20154;-91
2021/12/13 06:05:51;;;;;;;6.83;4.93;;;11.40;99.90;;;;;;6243410;23;20205;-92
2021/12/13 06:08:32;;;;;;;8.53;6.63;;;11.30;99.90;;;;;;6262198;22;20223;-94
2021/12/13 06:11:09;;;;;;;5.43;4.47;;;11.30;99.90;;;;;;6265140;22;20200;-92
2021/12/13 06:13:46;;;;;;;10.07;6.07;;;11.30;99.90;;;;;;6266301;22;20204;-94
2021/12/13 06:16:25;;;;;;;7.97;5.23;;;11.40;99.90;;;;;;6244759;23;20208;-95
2021/12/13 06:19:24;;;;;;;9.57;7.43;;;11.40;99.90;;;;;;6247437;23;20197;-95
2021/12/13 06:22:05;;;;;;;10.13;7.23;;;11.40;99.90;;;;;;6251836;22;20189;-95
2021/12/13 06:24:53;;;;;;;5.37;3.90;;;11.40;99.90;;;;;;6253572;23;20211;-95
2021/12/13 06:27:33;;;;;;;10.97;5.80;;;11.30;99.90;;;;;;6277275;22;20182;-94
2021/12/13 06:30:04;;;;;;;9.33;5.33;;;11.30;99.90;;;;;;6254588;22;20508;-95
2021/12/13 06:32:34;;;;;;;7.27;5.73;;;11.40;99.90;;;;;;6261360;23;20160;-95
2021/12/13 06:35:28;;;;;;;9.93;6.67;;;11.30;99.90;;;;;;6278049;22;20244;-95
2021/12/13 06:37:54;;;;;;;8.83;5.57;;;11.40;99.90;;;;;;6247179;22;20197;-95
2021/12/13 06:40:28;;;;;;;4.93;4.50;;;11.40;99.90;;;;;;6272458;22;20220;-96
2021/12/13 06:42:59;;;;;;;5.40;4.97;;;11.40;99.90;;;;;;6272279;22;20213;-95
2021/12/13 06:45:33;;;;;;;7.33;5.27;;;11.30;99.90;;;;;;6270601;22;20201;-95
2021/12/13 06:48:03;;;;;;;5.97;4.73;;;11.30;99.90;;;;;;6269033;22;20470;-96
2021/12/13 06:50:37;;;;;;;5.40;3.97;;;11.30;99.90;;;;;;6272447;22;20283;-96
2021/12/13 06:53:25;;;;;;;7.30;4.90;;;11.30;99.90;;;;;;6227567;23;20197;-96
2021/12/13 06:56:27;;;;;;;9.03;5.23;;;11.30;99.90;;;;;;6260785;22;20247;-96
2021/12/13 06:58:58;;;;;;;6.03;5.13;;;11.30;99.90;;;;;;6237741;22;20722;-94
2021/12/13 07:01:35;;;;;;;8.67;7.40;;;11.40;99.90;;;;;;6215431;23;20193;-93
2021/12/13 07:04:07;;;;;;;11.20;9.10;;;11.30;99.90;;;;;;6273677;22;20197;-94
2021/12/13 07:06:33;;;;;;;11.20;9.80;;;11.30;99.90;;;;;;6266805;22;20201;-94
2021/12/13 07:09:11;;;;;;;9.43;7.30;;;11.40;99.90;;;;;;6242490;22;20617;-92
2021/12/13 07:11:51;;;;;;;7.47;5.33;;;11.30;99.90;;;;;;6269204;22;20145;-92
2021/12/13 07:14:30;;;;;;;13.00;9.30;;;11.30;99.90;;;;;;6270475;22;20247;-93
2021/12/13 07:16:57;;;;;;;9.60;6.57;;;11.30;99.90;;;;;;6266872;22;20205;-91
2021/12/13 07:19:30;;;;;;;9.20;7.30;;;11.30;99.90;;;;;;6270612;22;20207;-94
2021/12/13 07:22:19;;;;;;;6.73;5.30;;;11.30;99.90;;;;;;6217832;22;20284;-91
2021/12/13 07:25:11;;;;;;;9.77;5.57;;;11.30;99.90;;;;;;6262341;22;20212;-92
2021/12/13 07:27:44;;;;;;;7.60;5.33;;;11.30;99.90;;;;;;6260648;22;20195;-92
2021/12/13 07:30:16;;;;;;;7.40;5.83;;;11.30;99.90;;;;;;6260561;22;20148;-93
2021/12/13 07:32:49;;;;;;;5.40;4.90;;;11.30;99.90;;;;;;6266776;22;20142;-94
2021/12/13 07:35:22;;;;;;;8.37;5.40;;;11.30;99.90;;;;;;6252956;23;20205;-92
2021/12/13 07:38:15;;;;;;;4.90;3.37;;;11.30;99.90;;;;;;6251606;22;20212;-91
2021/12/13 07:40:46;;;;;;;3.73;3.27;;;11.30;99.90;;;;;;6248475;23;20528;-92
2021/12/13 07:43:28;;;;;;;8.77;5.83;;;11.30;99.90;;;;;;6269241;22;20217;-94
2021/12/13 07:46:06;;;;;;;9.47;6.50;;;11.30;99.90;;;;;;6244255;23;20217;-92
2021/12/13 07:48:41;;;;;;;10.67;6.83;;;11.30;99.90;;;;;;6244541;23;20566;-94
2021/12/13 07:51:16;;;;;;;11.67;8.73;;;11.30;99.90;;;;;;6241907;22;20264;-92
2021/12/13 07:53:57;;;;;;;10.23;7.00;;;11.30;99.90;;;;;;6242246;23;20215;-93
2021/12/13 07:56:32;;;;;;;8.90;5.97;;;11.30;99.90;;;;;;6243283;23;20721;-93
2021/12/13 07:58:58;;;;;;;7.13;5.30;;;11.30;99.90;;;;;;6241039;23;20233;-93
2021/12/13 08:01:27;;;;;;;7.83;6.37;;;11.30;99.90;;;;;;6243072;22;20201;-91
2021/12/13 08:03:55;;;;;;;9.70;7.53;;;11.30;99.90;;;;;;6267197;22;20194;-93
2021/12/13 08:06:27;;;;;;;9.40;7.60;;;11.40;99.90;;;;;;6269276;22;20208;-91
2021/12/13 08:08:57;;;;;;;9.70;6.57;;;11.40;99.90;;;;;;6272889;22;20160;-90
2021/12/13 08:11:55;;;;;;;6.17;3.90;;;11.30;99.90;;;;;;6272256;22;20185;-90
2021/12/13 08:14:35;;;;;;;7.20;5.43;;;11.40;99.90;;;;;;6262677;22;20189;-93
2021/12/13 08:17:32;;;;;;;8.20;6.40;;;11.40;99.90;;;;;;6277902;22;20197;-91
2021/12/13 08:20:08;;;;;;;8.70;6.03;;;11.40;99.90;;;;;;6256350;23;20193;-91
2021/12/13 08:22:40;;;;;;;10.33;5.87;;;11.40;99.90;;;;;;6281040;22;20200;-92
2021/12/13 08:25:14;;;;;;;12.50;7.30;;;11.40;99.90;;;;;;6276378;22;20201;-91
2021/12/13 08:27:42;;;;;;;8.27;5.97;;;11.40;99.90;;;;;;6280497;22;20189;-92
2021/12/13 08:30:11;;;;;;;10.40;6.43;;;11.40;99.90;;;;;;6277126;22;20164;-91
2021/12/13 08:32:52;;;;;;;8.00;6.27;;;11.40;99.90;;;;;;6252625;23;20157;-91
2021/12/13 08:35:18;;;;;;;9.93;6.43;;;11.50;99.90;;;;;;6247959;22;20201;-92
2021/12/13 08:37:45;;;;;;;10.47;6.30;;;11.50;99.90;;;;;;6249752;22;20201;-92
2021/12/13 08:40:19;;;;;;;6.00;4.83;;;11.50;99.90;;;;;;6252089;22;20185;-91
2021/12/13 08:42:51;;;;;;;9.93;6.30;;;11.50;99.90;;;;;;6279627;22;20205;-92
2021/12/13 08:45:30;;;;;;;6.43;5.27;;;11.50;99.90;;;;;;6255030;22;20587;-92
2021/12/13 08:48:02;;;;;;;10.20;5.83;;;11.50;99.90;;;;;;6269449;22;20204;-92
2021/12/13 08:50:41;;;;;;;12.30;5.90;;;11.50;99.90;;;;;;6279600;22;20197;-92
2021/12/13 08:53:14;;;;;;;8.47;4.70;;;11.50;99.90;;;;;;6271854;22;20208;-91
2021/12/13 08:55:50;;;;;;;6.10;5.50;;;11.50;99.90;;;;;;6267600;22;20883;-91
2021/12/13 08:58:19;;;;;;;6.63;5.23;;;11.50;99.90;;;;;;6274419;22;20296;-92
2021/12/13 09:00:59;;;;;;;4.17;3.53;;;11.50;99.90;;;;;;6243813;22;20185;-92
2021/12/13 09:03:45;;;;;;;5.10;4.17;;;11.50;99.90;;;;;;6274946;22;20646;-92
2021/12/13 09:06:17;;;;;;;5.33;4.80;;;11.60;99.90;;;;;;6270814;22;20181;-92
2021/12/13 09:09:01;;;;;;;5.47;3.50;;;11.60;99.90;;;;;;6244627;23;20552;-92
2021/12/13 09:12:07;;;;;;;7.73;3.83;;;11.60;99.90;;;;;;6243844;23;20748;-91
2021/12/13 09:14:37;;;;;;;6.67;4.37;;;11.60;99.90;;;;;;6244356;23;20226;-92
2021/12/13 09:17:13;;;;;;;7.00;5.27;;;11.60;99.90;;;;;;6242890;23;20202;-91
2021/12/13 09:19:48;;;;;;;7.93;5.20;;;11.70;99.90;;;;;;6266630;22;20242;-91
2021/12/13 09:22:18;;;;;;;6.00;4.20;;;11.70;99.90;;;;;;6239422;23;20641;-91
2021/12/13 09:24:47;;;;;;;4.47;4.03;;;11.70;99.90;;;;;;6247869;23;20189;-92
2021/12/13 09:27:24;;;;;;;10.90;5.93;;;11.60;99.90;;;;;;6255302;22;20158;-91
2021/12/13 09:30:12;;;;;;;7.93;5.13;;;11.60;99.90;;;;;;6251866;23;20169;-92
2021/12/13 09:32:56;;;;;;;2.87;2.23;;;11.60;99.90;;;;;;6223971;23;20162;-91
2021/12/13 09:35:43;;;;;;;8.17;5.33;;;11.60;99.90;;;;;;6280945;22;20177;-92
2021/12/13 09:38:28;;;;;;;4.43;3.77;;;11.60;99.90;;;;;;6255729;22;20287;-95
2021/12/13 09:41:06;;;;;;;5.33;3.97;;;11.60;99.90;;;;;;6252588;23;20200;-96
2021/12/13 09:43:46;;;;;;;5.67;4.87;;;11.60;99.90;;;;;;6236321;23;20224;-92
2021/12/13 09:46:20;;;;;;;5.27;3.73;;;11.70;99.90;;;;;;6255700;22;20212;-93
2021/12/13 09:48:53;;;;;;;8.73;4.80;;;11.70;99.90;;;;;;6276099;22;20204;-95
2021/12/13 09:51:25;;;;;;;5.67;3.83;;;11.80;99.90;;;;;;6266640;22;20200;-94
2021/12/13 09:54:03;;;;;;;4.97;4.03;;;11.80;99.90;;;;;;6273392;22;20146;-94
2021/12/13 09:56:50;;;;;;;5.17;4.47;;;11.80;99.90;;;;;;6252181;22;20254;-95
2021/12/13 09:59:29;;;;;;;3.67;3.10;;;11.90;99.90;;;;;;6277688;22;20197;-93
2021/12/13 10:02:01;;;;;;;7.23;4.47;;;11.80;99.90;;;;;;6202460;23;20219;-96
2021/12/13 10:04:40;;;;;;;4.83;3.40;;;11.90;99.90;;;;;;6248584;22;20382;-94
2021/12/13 10:07:11;;;;;;;7.87;4.07;;;11.80;99.90;;;;;;6266396;22;20224;-95
2021/12/13 10:09:48;;;;;;;5.67;3.47;;;11.80;99.90;;;;;;6265811;22;20193;-94
2021/12/13 10:12:24;;;;;;;3.43;2.40;;;11.90;99.90;;;;;;6265789;22;20145;-95
2021/12/13 10:14:58;;;;;;;5.07;3.50;;;11.80;99.90;;;;;;6241675;23;20160;-94
2021/12/13 10:17:30;;;;;;;5.70;4.70;;;11.80;99.90;;;;;;6241444;23;20267;-91
2021/12/13 10:19:59;;;;;;;4.50;2.27;;;11.90;99.90;;;;;;6269523;22;20201;-93
2021/12/13 10:22:28;;;;;;;4.80;3.70;;;11.80;99.90;;;;;;6270759;22;20224;-93
2021/12/13 10:25:05;;;;;;;5.00;3.93;;;11.90;99.90;;;;;;6269492;22;20216;-92
2021/12/13 10:27:32;;;;;;;4.67;3.03;;;11.90;99.90;;;;;;6241191;23;20193;-92
2021/12/13 10:30:00;;;;;;;3.90;2.87;;;11.90;99.90;;;;;;6268808;22;20315;-93
2021/12/13 10:32:33;;;;;;;5.10;3.70;;;12.00;99.90;;;;;;6268639;22;20492;-92
2021/12/13 10:35:09;;;;;;;5.47;3.03;;;12.10;99.90;;;;;;6269446;22;20251;-91
2021/12/13 10:37:38;;;;;;;3.17;2.87;;;12.00;99.90;;;;;;6268412;22;20560;-93
2021/12/13 10:40:30;;;;;;;9.87;4.23;;;12.00;99.90;;;;;;6268065;22;20208;-92
2021/12/13 10:43:09;;;;;;;9.40;3.23;;;12.00;99.90;;;;;;6231716;23;20206;-92
2021/12/13 10:45:40;;;;;;;5.63;3.60;;;12.00;99.90;;;;;;6269684;22;20201;-92
2021/12/13 10:48:09;;;;;;;4.17;3.80;;;12.10;99.90;;;;;;6269704;22;20156;-94
2021/12/13 10:50:40;;;;;;;5.50;3.90;;;12.10;99.90;;;;;;6271583;22;20154;-92
2021/12/13 10:53:10;;;;;;;5.13;2.63;;;12.10;99.90;;;;;;6276987;22;20204;-95
2021/12/13 10:55:46;;;;;;;3.40;3.10;;;12.10;99.90;;;;;;6222085;23;20193;-95
2021/12/13 10:58:22;;;;;;;4.33;2.87;;;12.10;99.90;;;;;;6275587;22;20193;-94
2021/12/13 11:01:05;;;;;;;3.60;3.30;;;12.10;99.90;;;;;;6276541;22;20188;-93
2021/12/13 11:03:32;;;;;;;6.40;2.77;;;12.20;99.90;;;;;;6276073;22;20243;-95
2021/12/13 11:05:59;;;;;;;3.57;3.13;;;12.30;99.90;;;;;;6279215;22;20701;-94
2021/12/13 11:08:28;;;;;;;3.33;3.03;;;12.30;99.90;;;;;;6250704;23;20693;-94
2021/12/13 11:11:07;;;;;;;3.00;2.60;;;12.40;99.90;;;;;;6275961;22;20228;-94
2021/12/13 11:13:37;;;;;;;6.23;3.73;;;12.50;99.90;;;;;;6276736;22;20204;-95
2021/12/13 11:16:34;;;;;;;7.03;2.70;;;12.50;99.90;;;;;;6275674;22;20297;-94
2021/12/13 11:19:13;;;;;;;3.53;2.67;;;12.50;99.90;;;;;;6231716;23;20542;-95
2021/12/13 11:21:55;;;;;;;4.77;4.20;;;12.40;99.90;;;;;;6239674;22;20189;-95
2021/12/13 11:24:24;;;;;;;4.50;4.10;;;12.50;99.90;;;;;;6272384;22;21106;-92
2021/12/13 11:26:56;;;;;;;2.83;2.60;;;12.50;99.90;;;;;;6270893;22;20182;-91
2021/12/13 11:29:23;;;;;;;4.30;2.83;;;12.50;99.90;;;;;;6267463;22;20221;-92
2021/12/13 11:32:00;;;;;;;3.03;2.27;;;12.50;99.90;;;;;;6265968;22;20679;-94
2021/12/13 11:34:44;;;;;;;6.60;3.23;;;12.50;99.90;;;;;;6242667;23;20296;-93
2021/12/13 11:37:56;;;;;;;4.00;2.80;;;12.50;99.90;;;;;;6241581;23;20220;-91
2021/12/13 11:41:10;;;;;;;3.20;2.23;;;12.60;99.90;;;;;;6268363;22;20204;-93
2021/12/13 11:44:02;;;;;;;4.47;3.43;;;12.60;99.90;;;;;;6268811;22;20259;-93
2021/12/13 11:46:45;;;;;;;9.10;3.67;;;12.60;99.90;;;;;;6274486;22;20201;-93
2021/12/13 11:49:35;;;;;;;7.67;3.17;;;12.70;99.90;;;;;;6249057;23;20271;-92
2021/12/13 11:52:39;;;;;;;2.93;1.93;;;12.70;99.90;;;;;;6245625;23;20193;-91
2021/12/13 11:55:47;;;;;;;3.60;2.10;;;12.70;99.90;;;;;;6243217;23;20204;-93
2021/12/13 11:58:50;;;;;;;2.00;1.83;;;12.70;99.90;;;;;;6234653;22;20205;-92
2021/12/13 12:01:40;;;;;;;11.13;3.07;;;12.70;99.90;;;;;;6244947;23;20197;-93
2021/12/13 12:04:43;;;;;;;3.13;2.73;;;12.70;99.90;;;;;;6246436;23;20332;-91
2021/12/13 12:07:47;;;;;;;2.87;2.20;;;12.70;99.90;;;;;;6245129;23;20235;-91
2021/12/13 12:10:50;;;;;;;4.07;3.10;;;12.70;99.90;;;;;;6249288;23;20533;-91
2021/12/13 12:13:31;;;;;;;5.30;2.43;;;12.70;99.90;;;;;;6253817;23;20298;-91
2021/12/13 12:16:02;;;;;;;7.03;3.70;;;12.70;99.90;;;;;;6252666;23;20235;-92
2021/12/13 12:18:31;;;;;;;12.00;4.00;;;12.70;99.90;;;;;;6278413;22;20199;-92
2021/12/13 12:21:34;;;;;;;4.27;2.93;;;12.70;99.90;;;;;;6273088;22;20161;-92
2021/12/13 12:24:05;;;;;;;6.63;3.10;;;12.70;99.90;;;;;;6252609;22;20218;-91
2021/12/13 12:26:32;;;;;;;6.47;2.93;;;12.70;99.90;;;;;;6250655;23;20201;-92
2021/12/13 12:29:01;;;;;;;7.20;3.23;;;12.70;99.90;;;;;;6268844;22;20304;-93
2021/12/13 12:31:37;;;;;;;3.83;2.93;;;12.60;99.90;;;;;;6273497;22;20193;-93
2021/12/13 12:34:05;;;;;;;7.40;3.27;;;12.50;99.90;;;;;;6273994;22;20224;-93
2021/12/13 12:36:58;;;;;;;4.70;3.37;;;12.50;99.90;;;;;;6246020;22;20196;-93
2021/12/13 12:39:39;;;;;;;3.50;2.67;;;12.50;99.90;;;;;;6243415;23;20221;-92
2021/12/13 12:42:31;;;;;;;4.27;3.00;;;12.50;99.90;;;;;;6246618;22;20153;-95
2021/12/13 12:45:00;;;;;;;2.90;2.67;;;12.50;99.90;;;;;;6208033;23;20179;-93
2021/12/13 12:48:01;;;;;;;2.80;2.30;;;12.40;99.90;;;;;;6184474;23;20155;-94
2021/12/13 12:50:33;;;;;;;3.40;2.60;;;12.30;99.90;;;;;;6179871;23;20588;-92
2021/12/13 12:53:01;;;;;;;4.23;2.90;;;12.30;99.90;;;;;;6205303;23;20195;-92
2021/12/13 12:55:38;;;;;;;5.63;3.63;;;12.30;99.90;;;;;;6203960;23;20547;-91
2021/12/13 12:58:20;;;;;;;4.03;2.83;;;12.30;99.90;;;;;;6204176;23;20686;-91
2021/12/13 13:00:50;;;;;;;2.37;2.07;;;12.30;99.90;;;;;;6204426;23;20619;-91
2021/12/13 13:03:36;;;;;;;6.33;3.03;;;12.30;99.90;;;;;;6179039;23;20221;-92
2021/12/13 13:06:08;;;;;;;7.53;2.53;;;12.20;99.90;;;;;;6203859;23;20660;-90
2021/12/13 13:08:40;;;;;;;5.73;3.13;;;12.10;99.90;;;;;;6204361;23;20523;-90
2021/12/13 13:11:26;;;;;;;3.90;3.37;;;12.10;99.90;;;;;;6202095;23;20202;-91
2021/12/13 13:13:58;;;;;;;5.17;4.03;;;12.10;99.90;;;;;;6203620;23;20224;-91
2021/12/13 13:16:36;;;;;;;5.37;4.30;;;12.10;99.90;;;;;;6204239;23;20222;-90
2021/12/13 13:19:05;;;;;;;2.63;2.43;;;12.00;99.90;;;;;;6178565;23;20205;-90
2021/12/13 13:21:31;;;;;;;6.27;3.40;;;12.10;99.90;;;;;;6181890;23;20246;-90
2021/12/13 13:24:01;;;;;;;2.30;1.73;;;12.10;99.90;;;;;;6156406;23;20189;-89
2021/12/13 13:26:33;;;;;;;5.07;4.03;;;12.10;99.90;;;;;;6180663;23;20205;-91
2021/12/13 13:29:04;;;;;;;3.07;2.50;;;12.00;99.90;;;;;;6179823;23;20198;-90
2021/12/13 13:31:48;;;;;;;5.57;2.93;;;12.00;99.90;;;;;;6203751;23;20525;-90
2021/12/13 13:34:18;;;;;;;6.47;4.23;;;11.90;99.90;;;;;;6203775;23;20344;-91
2021/12/13 13:37:13;;;;;;;4.07;3.67;;;12.00;99.90;;;;;;6204631;23;20633;-91
2021/12/13 13:39:54;;;;;;;3.17;2.73;;;12.00;99.90;;;;;;6175557;23;20191;-91
2021/12/13 13:42:55;;;;;;;4.73;2.57;;;11.90;99.90;;;;;;6204040;23;20222;-91
2021/12/13 13:45:28;;;;;;;4.23;2.67;;;11.90;99.90;;;;;;6117852;23;20218;-90